createdAt,value
2019-03-10T00:00:19.453Z,3.23
2019-03-10T00:02:47.661Z,2.83
2019-03-10T00:05:18.228Z,5.03
2019-03-10T00:07:46.422Z,3.73
2019-03-10T00:10:14.654Z,2.13
2019-03-10T00:12:42.870Z,2.30
2019-03-10T00:15:11.642Z,4.40
2019-03-10T00:17:39.864Z,3.93
2019-03-10T00:20:09.040Z,4.17
2019-03-10T00:22:37.259Z,3.73
2019-03-10T00:25:06.337Z,2.37
2019-03-10T00:27:34.552Z,2.87
2019-03-10T00:30:03.238Z,1.73
2019-03-10T00:32:31.460Z,3.00
2019-03-10T00:34:59.667Z,2.17
2019-03-10T00:37:27.939Z,3.30
2019-03-10T00:40:14.415Z,2.40
2019-03-10T00:42:47.135Z,3.10
2019-03-10T00:45:33.543Z,2.27
2019-03-10T00:48:12.508Z,2.63
2019-03-10T00:50:54.255Z,1.30
2019-03-10T00:53:22.476Z,2.23
2019-03-10T00:55:50.680Z,4.03
2019-03-10T00:58:18.967Z,2.63
2019-03-10T01:00:47.200Z,2.50
2019-03-10T01:03:15.583Z,5.17
2019-03-10T01:05:43.791Z,4.77
2019-03-10T01:08:12.006Z,4.00
2019-03-10T01:10:40.218Z,3.20
2019-03-10T01:13:08.611Z,3.77
2019-03-10T01:15:37.182Z,3.47
2019-03-10T01:18:05.476Z,4.70
2019-03-10T01:20:34.155Z,3.73
2019-03-10T01:23:02.376Z,2.47
2019-03-10T01:25:30.587Z,3.20
2019-03-10T01:27:58.810Z,1.73
2019-03-10T01:30:27.583Z,2.80
2019-03-10T01:33:06.568Z,3.20
2019-03-10T01:35:34.768Z,1.60
2019-03-10T01:38:02.993Z,1.90
2019-03-10T01:40:31.193Z,2.20
2019-03-10T01:42:59.444Z,1.90
2019-03-10T01:45:27.650Z,2.63
2019-03-10T01:47:56.298Z,3.07
2019-03-10T01:50:24.515Z,2.37
2019-03-10T01:52:52.739Z,1.77
2019-03-10T01:55:20.947Z,1.53
2019-03-10T01:57:49.172Z,5.00
2019-03-10T02:00:17.376Z,2.23
2019-03-10T02:02:45.598Z,2.17
2019-03-10T02:05:13.808Z,5.37
2019-03-10T02:07:42.022Z,1.83
2019-03-10T02:10:11.007Z,1.50
2019-03-10T02:12:39.237Z,1.63
2019-03-10T02:15:09.208Z,1.70
2019-03-10T02:17:37.515Z,1.53
2019-03-10T02:20:07.322Z,3.67
2019-03-10T02:22:35.547Z,1.57
2019-03-10T02:25:04.626Z,1.50
2019-03-10T02:27:32.836Z,1.60
2019-03-10T02:30:01.047Z,5.17
2019-03-10T02:32:29.274Z,1.57
2019-03-10T02:34:57.486Z,1.40
2019-03-10T02:37:25.704Z,1.67
2019-03-10T02:39:53.919Z,1.20
2019-03-10T02:42:22.143Z,2.67
2019-03-10T02:44:50.361Z,2.40
2019-03-10T02:47:18.570Z,2.23
2019-03-10T02:49:46.779Z,1.57
2019-03-10T02:52:14.983Z,1.93
2019-03-10T02:54:43.229Z,3.07
2019-03-10T02:57:11.432Z,2.10
2019-03-10T02:59:39.699Z,1.60
2019-03-10T03:02:07.899Z,1.67
2019-03-10T03:04:36.111Z,1.40
2019-03-10T03:07:04.325Z,1.70
2019-03-10T03:09:32.545Z,1.30
2019-03-10T03:12:00.753Z,1.60
2019-03-10T03:14:29.025Z,4.80
2019-03-10T03:16:57.386Z,3.57
2019-03-10T03:19:25.669Z,2.97
2019-03-10T03:21:53.877Z,1.70
2019-03-10T03:24:22.090Z,1.50
2019-03-10T03:26:50.300Z,2.07
2019-03-10T03:29:18.546Z,1.83
2019-03-10T03:31:46.865Z,1.87
2019-03-10T03:34:15.213Z,2.53
2019-03-10T03:36:43.416Z,2.53
2019-03-10T03:39:16.422Z,1.33
2019-03-10T03:41:44.691Z,2.37
2019-03-10T03:44:12.912Z,3.50
2019-03-10T03:46:41.125Z,1.43
2019-03-10T03:49:09.347Z,1.83
2019-03-10T03:51:37.569Z,1.50
2019-03-10T03:54:05.779Z,2.67
2019-03-10T03:56:34.050Z,2.97
2019-03-10T03:59:02.562Z,1.57
2019-03-10T04:01:35.325Z,1.00
2019-03-10T04:04:03.591Z,1.33
2019-03-10T04:06:31.823Z,1.13
2019-03-10T04:09:00.050Z,2.13
2019-03-10T04:11:28.268Z,2.77
2019-03-10T04:13:56.500Z,1.53
2019-03-10T04:16:24.717Z,1.50
2019-03-10T04:18:52.932Z,2.70
2019-03-10T04:21:21.145Z,1.73
2019-03-10T04:23:49.425Z,1.50
2019-03-10T04:26:17.688Z,2.03
2019-03-10T04:28:45.916Z,2.20
2019-03-10T04:31:14.113Z,0.90
2019-03-10T04:33:42.341Z,1.17
2019-03-10T04:36:10.554Z,1.97
2019-03-10T04:38:38.763Z,3.00
2019-03-10T04:41:07.066Z,2.70
2019-03-10T04:43:35.269Z,2.77
2019-03-10T04:46:03.501Z,1.30
2019-03-10T04:48:31.703Z,1.23
2019-03-10T04:50:59.930Z,1.70
2019-03-10T04:53:28.145Z,1.33
2019-03-10T04:56:00.743Z,1.87
2019-03-10T04:58:28.952Z,2.43
2019-03-10T05:00:58.842Z,1.00
2019-03-10T05:03:27.062Z,1.20
2019-03-10T05:05:55.284Z,1.17
2019-03-10T05:08:23.490Z,1.13
2019-03-10T05:10:51.711Z,1.17
2019-03-10T05:13:19.923Z,2.27
2019-03-10T05:15:48.156Z,1.20
2019-03-10T05:18:16.373Z,1.30
2019-03-10T05:20:44.587Z,1.07
2019-03-10T05:23:30.854Z,1.10
2019-03-10T05:25:59.351Z,0.80
2019-03-10T05:28:28.524Z,2.73
2019-03-10T05:30:56.747Z,1.20
2019-03-10T05:33:24.955Z,1.27
2019-03-10T05:35:53.184Z,1.83
2019-03-10T05:38:21.387Z,1.30
2019-03-10T05:40:49.610Z,0.90
2019-03-10T05:43:17.820Z,0.93
2019-03-10T05:45:46.041Z,1.10
2019-03-10T05:48:14.238Z,0.97
2019-03-10T05:50:42.461Z,0.80
2019-03-10T05:53:10.665Z,1.40
2019-03-10T05:55:38.893Z,2.23
2019-03-10T05:58:07.106Z,1.00
2019-03-10T06:00:42.744Z,1.23
2019-03-10T06:03:05.242Z,1.60
2019-03-10T06:05:33.465Z,1.00
2019-03-10T06:08:01.670Z,1.53
2019-03-10T06:10:29.891Z,1.30
2019-03-10T06:12:58.121Z,1.57
2019-03-10T06:15:26.335Z,2.53
2019-03-10T06:17:54.541Z,2.77
2019-03-10T06:20:22.779Z,1.30
2019-03-10T06:22:50.981Z,1.30
2019-03-10T06:25:19.205Z,3.13
2019-03-10T06:27:47.411Z,1.53
2019-03-10T06:30:15.630Z,1.27
2019-03-10T06:32:43.851Z,1.70
2019-03-10T06:35:12.072Z,2.07
2019-03-10T06:37:40.283Z,1.70
2019-03-10T06:40:08.581Z,1.73
2019-03-10T06:42:36.788Z,1.23
2019-03-10T06:45:05.781Z,1.20
2019-03-10T06:47:33.993Z,1.90
2019-03-10T06:50:02.207Z,1.67
2019-03-10T06:52:30.426Z,2.67
2019-03-10T06:54:58.644Z,1.63
2019-03-10T06:57:26.847Z,0.97
2019-03-10T06:59:55.058Z,1.23
2019-03-10T07:02:23.286Z,1.20
2019-03-10T07:04:51.498Z,2.10
2019-03-10T07:07:19.715Z,1.33
2019-03-10T07:09:47.931Z,1.20
2019-03-10T07:12:16.156Z,1.20
2019-03-10T07:14:44.366Z,1.20
2019-03-10T07:17:12.586Z,1.43
2019-03-10T07:19:40.831Z,1.20
2019-03-10T07:22:09.050Z,1.37
2019-03-10T07:24:37.269Z,1.17
2019-03-10T07:27:05.483Z,1.50
2019-03-10T07:29:35.407Z,1.37
2019-03-10T07:32:09.024Z,1.27
2019-03-10T07:34:42.267Z,1.07
2019-03-10T07:37:15.043Z,1.10
2019-03-10T07:39:53.791Z,1.17
2019-03-10T07:42:23.629Z,1.47
2019-03-10T07:45:09.901Z,1.63
2019-03-10T07:47:56.360Z,0.97
2019-03-10T07:50:26.235Z,1.13
2019-03-10T07:52:58.765Z,1.80
2019-03-10T07:55:34.570Z,1.03
2019-03-10T07:58:21.095Z,1.10
2019-03-10T08:01:07.440Z,1.90
2019-03-10T08:03:43.031Z,1.40
2019-03-10T08:06:18.359Z,2.27
2019-03-10T08:08:48.212Z,2.20
2019-03-10T08:11:24.263Z,0.73
2019-03-10T08:14:03.068Z,1.20
2019-03-10T08:16:38.809Z,0.87
2019-03-10T08:19:11.542Z,1.07
2019-03-10T08:21:57.714Z,0.70
2019-03-10T08:24:27.573Z,1.10
2019-03-10T08:26:57.440Z,0.80
2019-03-10T08:31:56.248Z,0.77
2019-03-10T08:34:42.497Z,0.80
2019-03-10T08:37:12.359Z,0.73
2019-03-10T08:39:45.119Z,0.70
2019-03-10T08:42:21.034Z,1.03
2019-03-10T08:45:06.339Z,0.77
2019-03-10T08:47:41.912Z,1.07
2019-03-10T08:50:11.763Z,0.70
2019-03-10T08:52:44.307Z,0.87
2019-03-10T08:55:20.164Z,0.80
2019-03-10T08:58:06.297Z,2.67
2019-03-10T09:00:52.785Z,0.70
2019-03-10T09:03:25.295Z,0.77
2019-03-10T09:06:00.986Z,0.63
2019-03-10T09:08:39.697Z,0.70
2019-03-10T09:11:26.223Z,0.90
2019-03-10T09:13:58.731Z,0.77
2019-03-10T09:16:34.519Z,0.80
2019-03-10T09:19:33.433Z,0.80
2019-03-10T09:22:19.582Z,1.20
2019-03-10T09:24:58.418Z,0.70
2019-03-10T09:27:37.112Z,0.70
2019-03-10T09:30:25.166Z,0.80
2019-03-10T09:32:58.071Z,0.73
2019-03-10T09:35:33.598Z,0.70
2019-03-10T09:38:18.764Z,0.63
2019-03-10T09:41:05.314Z,0.67
2019-03-10T09:43:37.966Z,1.20
2019-03-10T09:46:11.000Z,1.03
2019-03-10T09:48:40.862Z,0.87
2019-03-10T09:51:16.720Z,1.20
2019-03-10T09:54:03.228Z,0.70
2019-03-10T09:56:36.027Z,3.10
2019-03-10T09:59:22.013Z,1.13
2019-03-10T10:01:51.862Z,1.87
2019-03-10T10:04:28.004Z,1.60
2019-03-10T10:07:12.834Z,2.00
2019-03-10T10:09:45.366Z,0.90
2019-03-10T10:12:17.881Z,0.80
2019-03-10T10:14:50.673Z,0.80
2019-03-10T10:17:20.522Z,0.70
2019-03-10T10:19:50.435Z,1.47
2019-03-10T10:22:23.147Z,0.83
2019-03-10T10:25:01.904Z,2.20
2019-03-10T10:27:50.282Z,1.03
2019-03-10T10:30:36.309Z,1.70
2019-03-10T10:33:06.158Z,1.67
2019-03-10T10:35:54.564Z,0.70
2019-03-10T10:38:40.599Z,1.40
2019-03-10T10:41:13.208Z,0.90
2019-03-10T10:43:59.823Z,0.67
2019-03-10T10:46:39.014Z,0.63
2019-03-10T10:49:11.819Z,0.90
2019-03-10T10:51:50.806Z,0.70
2019-03-10T10:54:23.656Z,0.87
2019-03-10T10:56:56.452Z,0.50
2019-03-10T10:59:26.309Z,0.60
2019-03-10T11:01:59.406Z,0.40
2019-03-10T11:04:44.499Z,0.77
2019-03-10T11:07:14.350Z,0.73
2019-03-10T11:09:47.279Z,0.60
2019-03-10T11:12:17.132Z,0.73
2019-03-10T11:14:49.677Z,0.60
2019-03-10T11:17:19.527Z,0.50
2019-03-10T11:20:07.043Z,0.70
2019-03-10T11:22:39.672Z,0.70
2019-03-10T11:25:18.558Z,0.70
2019-03-10T11:27:48.511Z,0.40
2019-03-10T11:30:18.441Z,0.33
2019-03-10T11:33:03.263Z,0.40
2019-03-10T11:35:35.913Z,0.60
2019-03-10T11:38:05.772Z,0.60
2019-03-10T11:40:41.693Z,1.20
2019-03-10T11:43:14.465Z,0.67
2019-03-10T11:45:47.153Z,0.50
2019-03-10T11:48:16.995Z,0.73
2019-03-10T11:51:03.236Z,0.90
2019-03-10T11:53:33.086Z,0.60
2019-03-10T11:56:15.135Z,1.33
2019-03-10T11:58:54.068Z,0.80
2019-03-10T12:01:35.907Z,0.97
2019-03-10T12:04:05.943Z,1.60
2019-03-10T12:06:38.219Z,0.70
2019-03-10T12:09:22.183Z,0.63
2019-03-10T12:11:50.482Z,0.50
2019-03-10T12:14:18.678Z,0.50
2019-03-10T12:16:46.895Z,0.60
2019-03-10T12:19:15.103Z,0.57
2019-03-10T12:21:44.189Z,0.50
2019-03-10T12:24:12.389Z,0.50
2019-03-10T12:26:40.613Z,0.60
2019-03-10T12:29:08.825Z,0.40
2019-03-10T12:31:37.052Z,0.50
2019-03-10T12:34:05.598Z,0.50
2019-03-10T12:36:33.981Z,0.73
2019-03-10T12:39:02.777Z,0.60
2019-03-10T12:41:31.001Z,1.60
2019-03-10T12:43:59.210Z,0.50
2019-03-10T12:46:27.429Z,0.50
2019-03-10T12:48:55.639Z,1.23
2019-03-10T12:51:23.858Z,0.47
2019-03-10T12:53:52.110Z,0.83
2019-03-10T12:56:20.359Z,0.50
2019-03-10T12:58:48.563Z,0.57
2019-03-10T13:01:16.791Z,1.23
2019-03-10T13:03:45.083Z,0.50
2019-03-10T13:06:13.390Z,0.60
2019-03-10T13:08:41.608Z,1.20
2019-03-10T13:11:09.860Z,1.53
2019-03-10T13:13:38.138Z,0.70
2019-03-10T13:16:06.361Z,0.70
2019-03-10T13:18:34.566Z,0.67
2019-03-10T13:21:02.790Z,1.67
2019-03-10T13:23:31.000Z,0.77
2019-03-10T13:25:59.223Z,0.97
2019-03-10T13:28:27.435Z,0.70
2019-03-10T13:30:55.662Z,0.67
2019-03-10T13:33:23.871Z,1.97
2019-03-10T13:35:52.078Z,1.37
2019-03-10T13:38:20.291Z,0.63
2019-03-10T13:40:48.518Z,0.80
2019-03-10T13:43:16.731Z,0.90
2019-03-10T13:45:44.943Z,0.70
2019-03-10T13:48:13.159Z,1.43
2019-03-10T13:50:41.375Z,1.23
2019-03-10T13:53:09.595Z,2.60
2019-03-10T13:55:37.812Z,1.63
2019-03-10T13:58:06.034Z,1.47
2019-03-10T14:00:34.244Z,1.70
2019-03-10T14:03:02.459Z,1.23
2019-03-10T14:05:30.668Z,1.73
2019-03-10T14:07:58.951Z,2.13
2019-03-10T14:10:27.151Z,2.40
2019-03-10T14:12:55.385Z,1.10
2019-03-10T14:15:23.609Z,2.60
2019-03-10T14:17:51.830Z,1.53
2019-03-10T14:20:20.048Z,1.40
2019-03-10T14:22:48.260Z,1.17
2019-03-10T14:25:16.735Z,1.23
2019-03-10T14:27:44.950Z,1.67
2019-03-10T14:30:19.323Z,1.60
2019-03-10T14:32:47.543Z,2.27
2019-03-10T14:35:15.747Z,2.57
2019-03-10T14:37:43.966Z,3.53
2019-03-10T14:40:21.737Z,3.43
2019-03-10T14:42:50.052Z,4.20
2019-03-10T14:45:18.635Z,2.83
2019-03-10T14:47:47.013Z,3.07
2019-03-10T14:50:16.491Z,1.67
2019-03-10T14:52:44.723Z,3.37
2019-03-10T14:55:20.015Z,2.50
2019-03-10T14:57:48.236Z,2.13
2019-03-10T15:00:20.359Z,3.07
2019-03-10T15:02:48.592Z,2.17
2019-03-10T15:05:16.796Z,5.97
2019-03-10T15:07:45.014Z,5.87
2019-03-10T15:10:14.198Z,3.10
2019-03-10T15:12:42.700Z,6.03
2019-03-10T15:15:21.755Z,4.50
2019-03-10T15:17:42.722Z,4.00
2019-03-10T15:20:11.713Z,3.03
2019-03-10T15:22:39.929Z,3.37
2019-03-10T15:25:09.611Z,2.93
2019-03-10T15:27:37.829Z,6.93
2019-03-10T15:30:10.761Z,5.80
2019-03-10T15:32:38.974Z,2.60
2019-03-10T15:35:08.466Z,4.13
2019-03-10T15:37:36.688Z,7.10
2019-03-10T15:40:05.881Z,3.23
2019-03-10T15:42:34.095Z,5.07
2019-03-10T15:45:02.308Z,6.40
2019-03-10T15:47:30.536Z,4.83
2019-03-10T15:49:58.764Z,5.57
2019-03-10T15:52:27.152Z,6.27
2019-03-10T15:54:55.375Z,6.80
2019-03-10T15:57:23.578Z,5.93
2019-03-10T15:59:51.824Z,3.27
2019-03-10T16:02:20.040Z,5.60
2019-03-10T16:04:48.262Z,4.97
2019-03-10T16:07:16.476Z,5.70
2019-03-10T16:09:44.690Z,4.17
2019-03-10T16:12:12.894Z,3.27
2019-03-10T16:14:41.147Z,6.87
2019-03-10T16:17:09.369Z,5.33
2019-03-10T16:19:37.604Z,4.97
2019-03-10T16:22:05.817Z,7.03
2019-03-10T16:24:34.040Z,4.00
2019-03-10T16:27:02.253Z,5.03
2019-03-10T16:29:30.482Z,3.63
2019-03-10T16:31:58.684Z,3.27
2019-03-10T16:34:26.895Z,2.10
2019-03-10T16:36:55.105Z,3.17
2019-03-10T16:39:23.327Z,7.53
2019-03-10T16:41:51.534Z,5.57
2019-03-10T16:44:19.774Z,5.77
2019-03-10T16:46:48.014Z,7.63
2019-03-10T16:49:16.300Z,3.17
2019-03-10T16:51:44.523Z,2.30
2019-03-10T16:54:12.756Z,6.70
2019-03-10T16:56:40.976Z,3.27
2019-03-10T16:59:09.206Z,4.50
2019-03-10T17:01:37.420Z,3.07
2019-03-10T17:04:05.643Z,6.73
2019-03-10T17:06:33.862Z,3.23
2019-03-10T17:09:04.592Z,5.20
2019-03-10T17:11:32.043Z,9.30
2019-03-10T17:14:03.090Z,3.13
2019-03-10T17:16:31.295Z,4.70
2019-03-10T17:18:59.515Z,5.07
2019-03-10T17:21:27.722Z,1.83
2019-03-10T17:23:56.162Z,3.57
2019-03-10T17:26:24.425Z,5.57
2019-03-10T17:28:52.647Z,3.93
2019-03-10T17:31:20.922Z,5.50
2019-03-10T17:33:49.186Z,3.23
2019-03-10T17:36:17.475Z,2.33
2019-03-10T17:38:45.697Z,2.37
2019-03-10T17:41:13.907Z,1.70
2019-03-10T17:43:42.126Z,3.90
2019-03-10T17:46:10.410Z,4.67
2019-03-10T17:48:38.635Z,3.13
2019-03-10T17:51:06.936Z,2.50
2019-03-10T17:53:35.135Z,5.80
2019-03-10T17:56:03.362Z,5.03
2019-03-10T17:58:33.899Z,4.43
2019-03-10T18:01:01.494Z,2.63
2019-03-10T18:03:29.712Z,5.73
2019-03-10T18:05:57.944Z,9.20
2019-03-10T18:08:26.163Z,3.37
2019-03-10T18:10:54.471Z,4.27
2019-03-10T18:13:22.681Z,4.07
2019-03-10T18:15:50.924Z,4.23
2019-03-10T18:18:19.156Z,4.10
2019-03-10T18:20:47.364Z,4.20
2019-03-10T18:23:15.566Z,4.70
2019-03-10T18:25:43.792Z,6.17
2019-03-10T18:28:11.998Z,6.60
2019-03-10T18:30:40.223Z,3.87
2019-03-10T18:33:08.431Z,4.80
2019-03-10T18:35:36.660Z,5.20
2019-03-10T18:38:04.878Z,4.60
2019-03-10T18:40:33.099Z,4.40
2019-03-10T18:43:01.309Z,4.13
2019-03-10T18:45:29.540Z,2.27
2019-03-10T18:47:57.742Z,4.37
2019-03-10T18:50:26.855Z,2.80
2019-03-10T18:52:55.609Z,3.83
2019-03-10T18:55:24.043Z,5.27
2019-03-10T18:57:52.258Z,5.80
2019-03-10T19:00:21.718Z,5.07
2019-03-10T19:02:49.943Z,2.63
2019-03-10T19:05:18.146Z,2.27
2019-03-10T19:07:46.372Z,2.27
2019-03-10T19:10:14.583Z,2.70
2019-03-10T19:12:42.805Z,3.37
2019-03-10T19:15:14.951Z,2.43
2019-03-10T19:17:43.169Z,4.20
2019-03-10T19:20:14.510Z,5.27
2019-03-10T19:22:42.738Z,5.73
2019-03-10T19:25:11.831Z,3.43
2019-03-10T19:27:40.045Z,3.37
2019-03-10T19:30:10.032Z,5.70
2019-03-10T19:32:38.292Z,3.03
2019-03-10T19:35:07.723Z,4.00
2019-03-10T19:37:35.973Z,4.53
2019-03-10T19:40:08.504Z,3.60
2019-03-10T19:42:36.728Z,3.70
2019-03-10T19:45:06.413Z,3.00
2019-03-10T19:47:34.631Z,2.30
2019-03-10T19:50:03.211Z,1.90
2019-03-10T19:52:31.446Z,2.33
2019-03-10T19:54:59.738Z,7.53
2019-03-10T19:57:27.965Z,2.40
2019-03-10T19:59:56.174Z,2.97
2019-03-10T20:02:24.386Z,1.70
2019-03-10T20:04:52.622Z,5.00
2019-03-10T20:07:20.845Z,3.40
2019-03-10T20:09:49.038Z,2.27
2019-03-10T20:12:17.255Z,2.83
2019-03-10T20:14:45.468Z,4.50
2019-03-10T20:17:13.710Z,3.77
2019-03-10T20:19:41.956Z,3.53
2019-03-10T20:22:10.340Z,3.33
2019-03-10T20:24:38.629Z,3.83
2019-03-10T20:27:06.838Z,2.70
2019-03-10T20:29:35.050Z,4.60
2019-03-10T20:32:13.447Z,5.03
2019-03-10T20:34:33.360Z,4.00
2019-03-10T20:37:01.587Z,5.23
2019-03-10T20:39:29.799Z,3.77
2019-03-10T20:42:05.199Z,4.07
2019-03-10T20:44:27.943Z,2.53
2019-03-10T20:46:56.187Z,4.07
2019-03-10T20:49:24.409Z,4.83
2019-03-10T20:51:52.633Z,2.77
2019-03-10T20:54:20.854Z,5.37
2019-03-10T20:56:49.062Z,6.57
2019-03-10T20:59:17.345Z,2.97
2019-03-10T21:01:45.614Z,2.37
2019-03-10T21:04:13.838Z,4.23
2019-03-10T21:06:42.046Z,3.73
2019-03-10T21:09:10.355Z,3.17
2019-03-10T21:11:57.939Z,7.60
2019-03-10T21:14:26.138Z,4.90
2019-03-10T21:16:54.364Z,3.17
2019-03-10T21:19:22.598Z,4.43
2019-03-10T21:21:50.811Z,4.67
2019-03-10T21:24:19.041Z,7.57
2019-03-10T21:26:47.264Z,4.47
2019-03-10T21:29:15.480Z,5.53
2019-03-10T21:31:43.691Z,2.50
2019-03-10T21:34:11.906Z,4.20
2019-03-10T21:36:40.114Z,3.70
2019-03-10T21:39:08.353Z,6.60
2019-03-10T21:41:36.554Z,5.23
2019-03-10T21:44:04.780Z,9.83
2019-03-10T21:46:33.259Z,4.13
2019-03-10T21:49:01.476Z,4.80
2019-03-10T21:51:29.693Z,8.50
2019-03-10T21:53:57.921Z,6.10
2019-03-10T21:56:26.127Z,3.70
2019-03-10T21:58:54.349Z,3.20
2019-03-10T22:01:22.607Z,4.60
2019-03-10T22:03:50.836Z,4.17
2019-03-10T22:06:19.055Z,3.23
2019-03-10T22:08:47.283Z,4.70
2019-03-10T22:11:15.495Z,2.67
2019-03-10T22:13:46.783Z,8.40
2019-03-10T22:16:13.627Z,5.47
2019-03-10T22:18:41.855Z,6.27
2019-03-10T22:21:10.101Z,7.03
2019-03-10T22:23:38.371Z,7.20
2019-03-10T22:26:06.585Z,3.80
2019-03-10T22:28:34.861Z,8.70
2019-03-10T22:31:03.107Z,3.93
2019-03-10T22:33:31.338Z,7.60
2019-03-10T22:35:59.806Z,2.87
2019-03-10T22:38:28.026Z,4.33
2019-03-10T22:40:56.263Z,5.00
2019-03-10T22:43:24.506Z,5.87
2019-03-10T22:45:52.711Z,6.80
2019-03-10T22:48:21.001Z,7.97
2019-03-10T22:50:49.467Z,5.20
2019-03-10T22:53:17.695Z,4.30
2019-03-10T22:55:45.909Z,10.37
2019-03-10T22:58:14.124Z,5.17
2019-03-10T23:00:46.715Z,3.67
2019-03-10T23:03:15.004Z,3.83
2019-03-10T23:05:43.215Z,6.07
2019-03-10T23:08:11.427Z,4.67
2019-03-10T23:10:39.628Z,9.80
2019-03-10T23:13:07.853Z,7.13
2019-03-10T23:15:36.060Z,6.90
2019-03-10T23:18:04.450Z,9.90
2019-03-10T23:20:32.668Z,8.13
2019-03-10T23:23:00.884Z,3.37
2019-03-10T23:25:29.094Z,7.20
2019-03-10T23:27:57.306Z,3.70
2019-03-10T23:30:25.518Z,4.93
2019-03-10T23:32:53.735Z,7.73
2019-03-10T23:35:21.962Z,8.23
2019-03-10T23:37:50.180Z,5.30
2019-03-10T23:40:21.359Z,5.57
2019-03-10T23:42:49.570Z,4.47
2019-03-10T23:45:18.271Z,6.13
2019-03-10T23:47:46.644Z,6.10
2019-03-10T23:50:15.735Z,5.60
2019-03-10T23:52:44.214Z,4.23
2019-03-10T23:55:12.902Z,4.27
2019-03-10T23:57:41.123Z,5.80
